Aeroporto :
LOGIN :

Iscrizione | Disclaimer

   EN    FR    IT 

 










Sommario :    VFR   VFR Marginale   IFR   IFR Intensivo   IFR Molto Intensivo
Visibilità : 
Base nubi : 
>= 8 km
>= 3000ft
5 / 8 km
1000 / 3000 ft
1500m / 5 km
500 / 1000 ft
800 / 1500m
200 / 500 ft
< 800m
< 200 ft
Simboli :   Temporali  Nebbia  Neve Forte  Precipitazioni Forti  Vento > 20 kt
SIGMETs :   Varie  Temporali  Ghiacco  Turbolenza  Onda orograficha  Ceneri Vulcaniche






- Altitudine del aeroporto : 3006 ft
- Codice IATA : LEN


LELN - Leon

ULTIMO METAR :
  • 120000Z AUTO 25010KT 220V290 9999 BKN012 04/03 Q1022

METARs OBSOLETI :
  • 112330Z AUTO 24012KT 9999 BKN012 04/03 Q1022
  • 112300Z AUTO 25012KT 9999 NCD 04/03 Q1022
  • 112230Z AUTO 25010KT 220V280 9999 NCD 03/02 Q1022
  • 112200Z AUTO 25013KT 9999 SCT050 04/02 Q1022

TAF TAF LELN
Valido dal 11 a 18 ore il 12 a 03 ore UTC


111700Z 1118/1203 25012KT 9999 BKN040



MetMap, La meteo Aeronautica in un colpo d'occhio ! - Copyright ORBIFLY Dicembre 2007 - Disclaimer

ORBIFLY MET'MAP TEAM :

Programmazione e sviluppo : Alexandra Zaïnal
Concezione : Baudouin d'Aumeries
Aiuto per la programmazione : Marc-Olivier Méhu
Supporto tecnico e logistico : Manuel Goepfert
Aiuto per la traduzione : Arnaldo La Scala

Contatto : metmap@orbifly.com




FONTI E CREDITI :

   NOAA